createdAt,value
2018-02-02T00:00:51.390Z,2.30
2018-02-02T00:03:18.877Z,2.77
2018-02-02T00:05:46.390Z,2.60
2018-02-02T00:08:13.886Z,2.83
2018-02-02T00:10:42.167Z,2.40
2018-02-02T00:13:09.665Z,3.00
2018-02-02T00:15:37.173Z,2.33
2018-02-02T00:18:05.434Z,2.10
2018-02-02T00:20:33.705Z,2.67
2018-02-02T00:23:01.194Z,2.30
2018-02-02T00:25:28.702Z,2.27
2018-02-02T00:27:56.190Z,2.20
2018-02-02T00:30:24.460Z,2.20
2018-02-02T00:32:52.731Z,2.73
2018-02-02T00:35:20.234Z,2.33
2018-02-02T00:37:47.730Z,2.80
2018-02-02T00:40:15.241Z,2.30
2018-02-02T00:42:42.743Z,1.83
2018-02-02T00:45:10.246Z,3.00
2018-02-02T00:47:37.730Z,2.03
2018-02-02T00:50:05.266Z,2.57
2018-02-02T00:52:32.762Z,2.10
2018-02-02T00:55:00.274Z,2.30
2018-02-02T00:57:28.530Z,2.20
2018-02-02T00:59:56.806Z,1.70
2018-02-02T01:02:24.302Z,1.87
2018-02-02T01:04:51.809Z,1.70
2018-02-02T01:07:19.302Z,1.70
2018-02-02T01:09:46.810Z,1.80
2018-02-02T01:12:14.298Z,1.50
2018-02-02T01:14:42.584Z,2.10
2018-02-02T01:17:10.842Z,2.00
2018-02-02T01:19:38.357Z,2.80
2018-02-02T01:22:05.846Z,3.30
2018-02-02T01:24:33.350Z,4.27
2018-02-02T01:27:00.846Z,3.43
2018-02-02T01:29:28.358Z,3.20
2018-02-02T01:31:55.853Z,2.90
2018-02-02T01:34:23.364Z,2.87
2018-02-02T01:36:51.626Z,3.43
2018-02-02T01:39:19.939Z,3.33
2018-02-02T01:41:47.490Z,3.47
2018-02-02T01:44:14.998Z,2.90
2018-02-02T01:46:42.498Z,2.60
2018-02-02T01:49:10.782Z,2.50
2018-02-02T01:51:38.274Z,2.50
2018-02-02T01:54:05.766Z,2.40
2018-02-02T01:56:33.359Z,2.10
2018-02-02T01:59:00.854Z,2.13
2018-02-02T02:01:28.361Z,2.23
2018-02-02T02:03:56.620Z,2.47
2018-02-02T02:06:25.639Z,2.13
2018-02-02T02:08:53.197Z,2.13
2018-02-02T02:11:20.715Z,2.20
2018-02-02T02:13:48.206Z,1.77
2018-02-02T02:16:16.482Z,1.87
2018-02-02T02:18:44.737Z,2.20
2018-02-02T02:21:12.251Z,2.13
2018-02-02T02:23:39.747Z,2.57
2018-02-02T02:26:07.346Z,2.20
2018-02-02T02:28:34.842Z,2.00
2018-02-02T02:31:02.366Z,2.37
2018-02-02T02:33:29.878Z,2.20
2018-02-02T02:35:57.479Z,2.70
2018-02-02T02:38:24.985Z,2.33
2018-02-02T02:40:52.472Z,3.00
2018-02-02T02:43:20.755Z,2.03
2018-02-02T02:45:49.019Z,1.77
2018-02-02T02:48:16.530Z,2.30
2018-02-02T02:50:44.022Z,1.60
2018-02-02T02:53:11.531Z,1.90
2018-02-02T02:55:39.017Z,2.30
2018-02-02T02:58:06.522Z,2.70
2018-02-02T03:00:34.777Z,1.50
2018-02-02T03:03:02.290Z,2.60
2018-02-02T03:05:29.778Z,2.40
2018-02-02T03:07:57.266Z,2.50
2018-02-02T03:10:25.554Z,2.50
2018-02-02T03:12:53.833Z,2.07
2018-02-02T03:15:22.105Z,2.00
2018-02-02T03:17:50.358Z,1.70
2018-02-02T03:20:17.866Z,2.00
2018-02-02T03:22:45.370Z,1.70
2018-02-02T03:25:12.874Z,1.80
2018-02-02T03:27:40.418Z,1.77
2018-02-02T03:30:07.983Z,1.27
2018-02-02T03:32:35.469Z,1.70
2018-02-02T03:35:02.978Z,1.40
2018-02-02T03:37:31.234Z,1.50
2018-02-02T03:39:58.741Z,1.80
2018-02-02T03:42:26.287Z,1.73
2018-02-02T03:44:53.798Z,1.60
2018-02-02T03:47:21.294Z,1.30
2018-02-02T03:49:49.570Z,1.90
2018-02-02T03:52:17.825Z,1.90
2018-02-02T03:54:45.334Z,1.90
2018-02-02T03:57:12.825Z,1.67
2018-02-02T03:59:40.338Z,2.27
2018-02-02T04:02:07.825Z,1.67
2018-02-02T04:04:35.322Z,2.30
2018-02-02T04:07:03.608Z,1.87
2018-02-02T04:09:31.868Z,1.83
2018-02-02T04:11:59.375Z,1.40
2018-02-02T04:14:26.926Z,1.30
2018-02-02T04:16:54.473Z,1.50
2018-02-02T04:19:21.961Z,1.70
2018-02-02T04:21:49.469Z,1.60
2018-02-02T04:24:17.734Z,1.93
2018-02-02T04:26:45.318Z,1.80
2018-02-02T04:29:12.809Z,1.87
2018-02-02T04:31:40.338Z,1.70
2018-02-02T04:34:07.830Z,1.87
2018-02-02T04:36:35.343Z,1.60
2018-02-02T04:39:03.602Z,2.37
2018-02-02T04:41:31.118Z,2.00
2018-02-02T04:43:58.754Z,1.70
2018-02-02T04:46:26.302Z,1.60
2018-02-02T04:48:54.567Z,1.77
2018-02-02T04:51:22.844Z,1.87
2018-02-02T04:53:51.130Z,1.80
2018-02-02T04:56:19.404Z,2.20
2018-02-02T04:58:47.666Z,2.00
2018-02-02T05:01:15.937Z,1.83
2018-02-02T05:03:44.202Z,2.13
2018-02-02T05:06:11.714Z,1.80
2018-02-02T05:08:39.212Z,1.97
2018-02-02T05:11:06.730Z,1.80
2018-02-02T05:13:34.228Z,2.03
2018-02-02T05:16:01.734Z,2.07
2018-02-02T05:18:29.235Z,2.33
2018-02-02T05:20:56.742Z,1.83
2018-02-02T05:23:24.233Z,2.00
2018-02-02T05:25:51.742Z,2.30
2018-02-02T05:28:20.003Z,2.17
2018-02-02T05:30:47.513Z,2.90
2018-02-02T05:33:15.006Z,3.30
2018-02-02T05:35:42.514Z,3.50
2018-02-02T05:38:10.006Z,4.57
2018-02-02T05:40:37.524Z,3.30
2018-02-02T05:43:05.022Z,3.23
2018-02-02T05:45:32.636Z,3.73
2018-02-02T05:48:00.134Z,3.07
2018-02-02T05:50:27.638Z,2.93
2018-02-02T05:52:55.894Z,2.80
2018-02-02T05:55:23.414Z,3.50
2018-02-02T05:57:50.914Z,3.83
2018-02-02T06:00:18.764Z,2.93
2018-02-02T06:02:46.287Z,4.53
2018-02-02T06:05:13.790Z,3.40
2018-02-02T06:07:41.299Z,3.80
2018-02-02T06:10:08.796Z,3.90
2018-02-02T06:12:36.323Z,4.97
2018-02-02T06:15:03.827Z,5.10
2018-02-02T06:17:31.338Z,5.90
2018-02-02T06:19:58.834Z,5.37
2018-02-02T06:22:26.367Z,5.00
2018-02-02T06:24:53.871Z,4.87
2018-02-02T06:27:22.158Z,6.27
2018-02-02T06:29:50.418Z,6.33
2018-02-02T06:32:17.937Z,4.90
2018-02-02T06:34:45.433Z,6.47
2018-02-02T06:37:12.945Z,6.33
2018-02-02T06:39:40.433Z,6.10
2018-02-02T06:42:07.954Z,6.57
2018-02-02T06:44:35.450Z,6.30
2018-02-02T06:47:02.964Z,6.90
2018-02-02T06:49:30.465Z,6.27
2018-02-02T06:51:57.987Z,6.07
2018-02-02T06:54:25.491Z,6.37
2018-02-02T06:56:53.090Z,6.33
2018-02-02T06:59:20.590Z,6.73
2018-02-02T07:01:48.110Z,8.00
2018-02-02T07:04:15.614Z,5.70
2018-02-02T07:06:43.141Z,7.10
2018-02-02T07:09:10.653Z,7.77
2018-02-02T07:11:38.934Z,9.20
2018-02-02T07:14:07.198Z,7.83
2018-02-02T07:16:34.730Z,7.40
2018-02-02T07:19:02.239Z,5.20
2018-02-02T07:21:30.519Z,5.50
2018-02-02T07:23:58.093Z,5.60
2018-02-02T07:26:25.652Z,4.53
2018-02-02T07:28:53.885Z,5.30
2018-02-02T07:31:21.399Z,5.03
2018-02-02T07:33:48.890Z,6.03
2018-02-02T07:36:16.407Z,7.60
2018-02-02T07:38:43.957Z,14.30
2018-02-02T07:41:11.514Z,9.03
2018-02-02T07:43:39.010Z,7.13
2018-02-02T07:46:06.525Z,6.33
2018-02-02T07:48:34.046Z,5.40
2018-02-02T07:51:01.546Z,5.30
2018-02-02T07:53:29.097Z,4.97
2018-02-02T07:55:56.599Z,5.40
2018-02-02T07:58:24.105Z,5.63
2018-02-02T08:00:58.110Z,5.30
2018-02-02T08:03:26.385Z,5.30
2018-02-02T08:05:54.645Z,5.40
2018-02-02T08:08:22.158Z,5.70
2018-02-02T08:10:49.694Z,4.90
2018-02-02T08:13:17.211Z,5.10
2018-02-02T08:15:44.707Z,5.33
2018-02-02T08:18:12.230Z,5.60
2018-02-02T08:20:39.726Z,5.03
2018-02-02T08:23:07.244Z,5.40
2018-02-02T08:25:34.741Z,5.83
2018-02-02T08:28:02.255Z,5.47
2018-02-02T08:30:29.756Z,6.00
2018-02-02T08:32:57.282Z,5.10
2018-02-02T08:35:24.778Z,6.10
2018-02-02T08:37:52.288Z,5.53
2018-02-02T08:40:19.781Z,6.03
2018-02-02T08:42:48.062Z,5.53
2018-02-02T08:45:15.564Z,5.97
2018-02-02T08:47:43.114Z,5.80
2018-02-02T08:50:10.615Z,5.23
2018-02-02T08:52:38.897Z,6.30
2018-02-02T08:55:07.167Z,5.20
2018-02-02T08:57:35.454Z,6.27
2018-02-02T09:00:03.722Z,6.23
2018-02-02T09:02:31.986Z,6.93
2018-02-02T09:04:59.503Z,6.23
2018-02-02T09:07:26.998Z,5.37
2018-02-02T09:09:54.519Z,5.90
2018-02-02T09:12:22.019Z,7.20
2018-02-02T09:14:49.537Z,5.80
2018-02-02T09:17:17.042Z,5.83
2018-02-02T09:19:45.322Z,6.33
2018-02-02T09:22:13.583Z,5.73
2018-02-02T09:24:41.102Z,5.57
2018-02-02T09:27:08.102Z,5.57
2018-02-02T09:29:36.378Z,5.43
2018-02-02T09:32:04.639Z,5.10
2018-02-02T09:34:32.159Z,6.17
2018-02-02T09:37:01.180Z,6.27
2018-02-02T09:39:28.729Z,5.30
2018-02-02T09:41:56.287Z,4.93
2018-02-02T09:44:23.807Z,5.50
2018-02-02T09:46:51.343Z,5.43
2018-02-02T09:49:19.683Z,5.00
2018-02-02T09:51:47.211Z,4.23
2018-02-02T09:54:14.709Z,4.50
2018-02-02T09:56:42.210Z,5.63
2018-02-02T09:59:09.705Z,4.63
2018-02-02T10:01:37.219Z,3.20
2018-02-02T10:04:05.478Z,5.20
2018-02-02T10:06:33.759Z,3.53
2018-02-02T10:09:02.380Z,3.70
2018-02-02T10:11:29.895Z,3.63
2018-02-02T10:13:57.392Z,3.53
2018-02-02T10:16:24.904Z,3.60
2018-02-02T10:18:52.399Z,2.97
2018-02-02T10:21:19.908Z,3.10
2018-02-02T10:23:47.406Z,2.83
2018-02-02T10:26:15.686Z,2.70
2018-02-02T10:28:43.941Z,2.97
2018-02-02T10:31:11.450Z,2.73
2018-02-02T10:33:38.954Z,2.40
2018-02-02T10:36:06.466Z,3.00
2018-02-02T10:38:33.962Z,3.77
2018-02-02T10:41:01.478Z,2.80
2018-02-02T10:43:28.984Z,2.77
2018-02-02T10:45:56.517Z,3.63
2018-02-02T10:48:24.038Z,2.73
2018-02-02T10:50:51.545Z,2.60
2018-02-02T10:53:19.038Z,2.77
2018-02-02T10:55:47.316Z,2.90
2018-02-02T10:58:14.813Z,2.50
2018-02-02T11:00:48.119Z,2.20
2018-02-02T11:03:18.099Z,2.90
2018-02-02T11:05:45.589Z,2.77
2018-02-02T11:08:13.102Z,2.87
2018-02-02T11:10:40.619Z,2.90
2018-02-02T11:13:08.129Z,2.57
2018-02-02T11:15:35.626Z,2.47
2018-02-02T11:18:03.134Z,2.50
2018-02-02T11:20:30.630Z,3.30
2018-02-02T11:22:58.147Z,2.60
2018-02-02T11:25:26.402Z,2.70
2018-02-02T11:27:53.917Z,2.70
2018-02-02T11:30:22.178Z,3.37
2018-02-02T11:32:49.690Z,2.40
2018-02-02T11:35:17.185Z,2.87
2018-02-02T11:37:44.716Z,2.33
2018-02-02T11:40:12.971Z,2.87
2018-02-02T11:42:40.483Z,2.40
2018-02-02T11:45:07.982Z,2.37
2018-02-02T11:47:35.497Z,3.07
2018-02-02T11:50:02.995Z,2.30
2018-02-02T11:52:30.507Z,2.40
2018-02-02T11:54:58.010Z,2.30
2018-02-02T11:57:25.530Z,2.50
2018-02-02T11:59:53.026Z,2.03
2018-02-02T12:02:20.550Z,2.53
2018-02-02T12:04:48.042Z,2.20
2018-02-02T12:07:15.533Z,2.47
2018-02-02T12:09:43.810Z,2.90
2018-02-02T12:12:12.066Z,2.10
2018-02-02T12:14:39.578Z,2.20
2018-02-02T12:17:07.077Z,2.40
2018-02-02T12:19:34.608Z,2.60
2018-02-02T12:22:07.854Z,2.33
2018-02-02T12:27:46.303Z,2.40
2018-02-02T12:30:29.538Z,2.37
2018-02-02T12:33:13.697Z,1.70
2018-02-02T12:38:45.530Z,2.50
2018-02-02T12:41:13.038Z,2.43
2018-02-02T12:43:40.534Z,2.90
2018-02-02T12:46:08.069Z,2.00
2018-02-02T12:48:41.418Z,4.13
2018-02-02T12:51:16.938Z,2.00
2018-02-02T12:53:44.430Z,2.00
2018-02-02T12:56:11.970Z,3.47
2018-02-02T12:58:40.225Z,2.10
2018-02-02T13:01:07.731Z,2.37
2018-02-02T13:03:35.221Z,2.90
2018-02-02T13:06:02.735Z,2.27
2018-02-02T13:08:30.994Z,2.40
2018-02-02T13:10:59.270Z,2.10
2018-02-02T13:13:27.537Z,1.80
2018-02-02T13:15:55.050Z,2.43
2018-02-02T13:18:22.542Z,2.03
2018-02-02T13:20:50.054Z,1.93
2018-02-02T13:23:17.545Z,1.70
2018-02-02T13:25:45.055Z,1.97
2018-02-02T13:28:12.550Z,1.60
2018-02-02T13:30:40.073Z,1.90
2018-02-02T13:33:07.572Z,2.10
2018-02-02T13:35:35.078Z,1.93
2018-02-02T13:38:03.341Z,1.90
2018-02-02T13:40:31.614Z,1.43
2018-02-02T13:42:59.869Z,2.00
2018-02-02T13:45:27.357Z,2.83
2018-02-02T13:47:55.680Z,2.63
2018-02-02T13:50:23.197Z,1.97
2018-02-02T13:52:50.714Z,1.70
2018-02-02T13:55:18.208Z,1.40
2018-02-02T13:57:46.483Z,3.10
2018-02-02T14:00:14.747Z,2.10
2018-02-02T14:02:43.032Z,4.30
2018-02-02T14:05:11.285Z,7.00
2018-02-02T14:07:38.790Z,1.80
2018-02-02T14:10:06.279Z,1.93
2018-02-02T14:12:33.786Z,2.07
2018-02-02T14:15:02.038Z,1.73
2018-02-02T14:17:29.549Z,2.10
2018-02-02T14:19:57.040Z,1.70
2018-02-02T14:22:25.313Z,1.77
2018-02-02T14:24:52.801Z,1.70
2018-02-02T14:27:21.111Z,1.70
2018-02-02T14:29:48.597Z,1.90
2018-02-02T14:32:16.118Z,1.60
2018-02-02T14:34:43.611Z,1.67
2018-02-02T14:37:11.114Z,2.00
2018-02-02T14:39:39.730Z,2.00
2018-02-02T14:42:07.243Z,2.20
2018-02-02T14:44:34.734Z,2.10
2018-02-02T14:47:02.250Z,1.80
2018-02-02T14:49:29.747Z,2.40
2018-02-02T14:51:57.253Z,2.17
2018-02-02T14:54:24.746Z,2.03
2018-02-02T14:56:53.018Z,2.57
2018-02-02T14:59:21.281Z,1.80
2018-02-02T15:01:48.798Z,2.60
2018-02-02T15:04:16.291Z,1.87
2018-02-02T15:06:43.804Z,2.17
2018-02-02T15:09:11.294Z,2.53
2018-02-02T15:11:38.806Z,2.50
2018-02-02T15:14:06.307Z,2.10
2018-02-02T15:16:33.815Z,1.97
2018-02-02T15:19:02.074Z,2.17
2018-02-02T15:21:30.349Z,2.67
2018-02-02T15:23:58.613Z,1.67
2018-02-02T15:26:26.135Z,2.37
2018-02-02T15:28:53.630Z,2.77
2018-02-02T15:31:21.123Z,2.60
2018-02-02T15:33:48.634Z,2.90
2018-02-02T15:36:16.129Z,4.67
2018-02-02T15:38:44.410Z,2.60
2018-02-02T15:41:11.905Z,2.50
2018-02-02T15:43:39.416Z,2.30
2018-02-02T15:46:07.680Z,2.27
2018-02-02T15:48:35.432Z,2.13
2018-02-02T15:51:02.926Z,2.13
2018-02-02T15:53:30.437Z,2.40
2018-02-02T15:55:57.934Z,1.80
2018-02-02T15:58:26.209Z,1.97
2018-02-02T16:00:54.469Z,3.77
2018-02-02T16:03:22.746Z,7.23
2018-02-02T16:05:51.009Z,3.90
2018-02-02T16:08:18.521Z,1.97
2018-02-02T16:10:46.027Z,2.00
2018-02-02T16:13:14.314Z,2.50
2018-02-02T16:15:42.574Z,3.93
2018-02-02T16:18:10.077Z,2.30
2018-02-02T16:20:37.566Z,2.80
2018-02-02T16:23:05.082Z,9.93
2018-02-02T16:25:32.582Z,8.27
2018-02-02T16:28:00.095Z,5.17
2018-02-02T16:30:28.359Z,4.03
2018-02-02T16:32:56.630Z,3.63
2018-02-02T16:35:24.120Z,7.03
2018-02-02T16:37:51.637Z,11.20
2018-02-02T16:40:19.133Z,9.63
2018-02-02T16:42:46.642Z,9.30
2018-02-02T16:45:14.126Z,8.13
2018-02-02T16:47:42.402Z,9.77
2018-02-02T16:50:10.667Z,7.00
2018-02-02T16:52:38.202Z,17.20
2018-02-02T16:55:05.711Z,16.50
2018-02-02T16:57:33.210Z,27.40
2018-02-02T17:00:00.717Z,15.10
2018-02-02T17:02:29.010Z,7.97
2018-02-02T17:04:56.527Z,13.27
2018-02-02T17:07:24.039Z,47.33
2018-02-02T17:09:51.554Z,21.40
2018-02-02T17:12:19.824Z,16.40
2018-02-02T17:14:47.338Z,13.77
2018-02-02T17:17:14.874Z,12.90
2018-02-02T17:19:42.382Z,5.93
2018-02-02T17:22:09.878Z,5.00
2018-02-02T17:24:38.146Z,6.30
2018-02-02T17:27:06.418Z,5.50
2018-02-02T17:29:34.693Z,7.87
2018-02-02T17:32:02.958Z,5.53
2018-02-02T17:34:31.303Z,4.03
2018-02-02T17:36:58.834Z,15.07
2018-02-02T17:39:26.359Z,13.27
2018-02-02T17:41:54.670Z,8.53
2018-02-02T17:44:22.222Z,6.87
2018-02-02T17:46:49.788Z,4.43
2018-02-02T17:49:17.338Z,4.17
2018-02-02T17:51:44.830Z,3.20
2018-02-02T17:54:12.337Z,3.40
2018-02-02T17:56:40.594Z,3.20
2018-02-02T17:59:08.102Z,3.33
2018-02-02T18:01:42.295Z,3.53
2018-02-02T18:04:10.566Z,6.23
2018-02-02T18:06:38.830Z,15.67
2018-02-02T18:09:07.118Z,23.80
2018-02-02T18:11:35.410Z,58.90
2018-02-02T18:14:02.926Z,26.03
2018-02-02T18:16:30.418Z,8.90
2018-02-02T18:18:57.934Z,6.63
2018-02-02T18:21:25.446Z,6.47
2018-02-02T18:23:52.966Z,14.93
2018-02-02T18:26:20.463Z,10.10
2018-02-02T18:28:48.007Z,12.20
2018-02-02T18:31:16.274Z,10.90
2018-02-02T18:33:44.561Z,5.87
2018-02-02T18:36:12.814Z,6.50
2018-02-02T18:38:40.400Z,7.83
2018-02-02T18:41:07.970Z,38.87
2018-02-02T18:43:35.522Z,38.37
2018-02-02T18:46:03.078Z,17.10
2018-02-02T18:48:30.638Z,19.70
2018-02-02T18:50:58.194Z,29.90
2018-02-02T18:53:25.718Z,16.30
2018-02-02T18:55:53.206Z,5.80
2018-02-02T18:58:21.457Z,5.00
2018-02-02T19:00:48.966Z,4.00
2018-02-02T19:03:16.453Z,4.00
2018-02-02T19:05:43.958Z,4.20
2018-02-02T19:08:11.450Z,4.57
2018-02-02T19:10:38.961Z,3.37
2018-02-02T19:13:07.218Z,5.23
2018-02-02T19:15:34.724Z,5.53
2018-02-02T19:18:02.261Z,4.50
2018-02-02T19:20:30.599Z,4.67
2018-02-02T19:22:58.094Z,4.10
2018-02-02T19:25:26.383Z,4.33
2018-02-02T19:27:53.878Z,3.73
2018-02-02T19:30:21.436Z,4.70
2018-02-02T19:32:48.986Z,6.03
2018-02-02T19:35:16.553Z,7.83
2018-02-02T19:37:44.101Z,13.33
2018-02-02T19:40:11.613Z,12.10
2018-02-02T19:42:39.874Z,7.47
2018-02-02T19:45:07.446Z,12.57
2018-02-02T19:47:35.706Z,5.37
2018-02-02T19:50:03.226Z,8.90
2018-02-02T19:52:30.784Z,8.30
2018-02-02T19:54:58.294Z,5.70
2018-02-02T19:57:26.618Z,5.70
2018-02-02T19:59:54.130Z,5.10
2018-02-02T20:02:22.437Z,4.60
2018-02-02T20:04:49.994Z,4.93
2018-02-02T20:07:17.716Z,5.40
2018-02-02T20:09:46.272Z,5.73
2018-02-02T20:12:13.865Z,6.57
2018-02-02T20:14:42.316Z,5.20
2018-02-02T20:17:09.972Z,6.00
2018-02-02T20:19:38.634Z,6.47
2018-02-02T20:22:06.240Z,7.87
2018-02-02T20:24:33.905Z,17.90
2018-02-02T20:27:01.454Z,15.73
2018-02-02T20:29:29.069Z,14.73
2018-02-02T20:31:56.574Z,21.07
2018-02-02T20:34:24.180Z,16.93
2018-02-02T20:36:51.792Z,13.03
2018-02-02T20:39:19.401Z,10.47
2018-02-02T20:41:47.013Z,11.00
2018-02-02T20:44:14.530Z,13.17
2018-02-02T20:46:42.031Z,10.70
2018-02-02T20:49:09.593Z,12.10
2018-02-02T20:51:37.094Z,14.63
2018-02-02T20:54:04.600Z,17.40
2018-02-02T20:56:32.135Z,18.70
2018-02-02T20:58:59.653Z,16.53
2018-02-02T21:01:27.992Z,15.40
2018-02-02T21:03:55.542Z,17.40
2018-02-02T21:06:23.057Z,9.20
2018-02-02T21:08:50.609Z,5.90
2018-02-02T21:11:18.952Z,5.90
2018-02-02T21:13:46.495Z,5.83
2018-02-02T21:16:14.038Z,6.03
2018-02-02T21:18:41.537Z,6.03
2018-02-02T21:21:09.854Z,5.50
2018-02-02T21:23:37.357Z,5.07
2018-02-02T21:26:04.917Z,9.10
2018-02-02T21:28:32.413Z,26.47
2018-02-02T21:31:00.702Z,13.50
2018-02-02T21:33:29.012Z,10.80
2018-02-02T21:35:56.573Z,6.40
2018-02-02T21:38:24.134Z,6.67
2018-02-02T21:40:51.658Z,9.00
2018-02-02T21:43:19.157Z,8.43
2018-02-02T21:45:46.662Z,6.10
2018-02-02T21:48:14.971Z,5.27
2018-02-02T21:50:42.486Z,4.90
2018-02-02T21:53:10.822Z,5.60
2018-02-02T21:55:38.392Z,5.13
2018-02-02T21:58:05.965Z,5.10
2018-02-02T22:00:33.510Z,4.70
2018-02-02T22:03:01.018Z,4.93
2018-02-02T22:05:29.300Z,6.23
2018-02-02T22:07:56.862Z,6.20
2018-02-02T22:10:24.359Z,5.70
2018-02-02T22:12:51.877Z,6.40
2018-02-02T22:15:19.366Z,5.77
2018-02-02T22:17:46.878Z,4.87
2018-02-02T22:20:15.141Z,6.50
2018-02-02T22:22:43.414Z,6.20
2018-02-02T22:25:10.910Z,6.10
2018-02-02T22:27:38.417Z,6.10
2018-02-02T22:30:07.422Z,5.23
2018-02-02T22:32:34.930Z,4.80
2018-02-02T22:35:02.471Z,5.43
2018-02-02T22:37:29.978Z,5.33
2018-02-02T22:39:57.521Z,4.80
2018-02-02T22:42:25.021Z,5.33
2018-02-02T22:44:53.326Z,5.40
2018-02-02T22:47:20.833Z,5.20
2018-02-02T22:49:48.321Z,4.80
2018-02-02T22:52:16.589Z,4.80
2018-02-02T22:54:44.854Z,5.10
2018-02-02T22:57:12.507Z,5.60
2018-02-02T22:59:40.014Z,4.93
2018-02-02T23:02:07.532Z,4.40
2018-02-02T23:04:35.050Z,4.87
2018-02-02T23:07:02.636Z,4.90
2018-02-02T23:09:30.241Z,5.90
2018-02-02T23:11:57.789Z,4.87
2018-02-02T23:14:26.063Z,5.20
2018-02-02T23:16:54.328Z,4.60
2018-02-02T23:19:22.606Z,5.20
2018-02-02T23:21:50.872Z,4.80
2018-02-02T23:24:18.389Z,4.73
2018-02-02T23:26:45.881Z,4.90
2018-02-02T23:29:13.388Z,4.60
2018-02-02T23:31:40.878Z,5.20
2018-02-02T23:34:08.399Z,5.00
2018-02-02T23:36:35.902Z,4.67
2018-02-02T23:39:03.406Z,4.90
2018-02-02T23:41:30.970Z,4.67
2018-02-02T23:43:58.479Z,5.33
2018-02-02T23:46:25.975Z,5.00
2018-02-02T23:48:54.246Z,4.53
2018-02-02T23:51:22.508Z,5.60
2018-02-02T23:53:50.014Z,5.80
2018-02-02T23:56:17.511Z,5.67
2018-02-02T23:58:45.021Z,5.90
